Time;durP1;ratioP1;P1;durP2;ratioP2;P2;SDS_P1;SDS_P2;PMS_P1;PMS_P2;Temp;Humidity;BMP_temperature;BMP_pressure;BME280_temperature;BME280_humidity;BME280_pressure;Samples;Min_cycle;Max_cycle;Signal;HPM_P1;HPM_P2
2021/07/31 00:59:16;;;;;;;26.13;22.65;;;24.60;98.10;;;;;;4771117;29;20071;-94
2021/07/31 01:01:49;;;;;;;24.90;21.83;;;24.60;98.20;;;;;;4903874;28;20041;-94
2021/07/31 01:04:37;;;;;;;24.27;19.85;;;24.60;98.20;;;;;;5053519;28;20032;-94
2021/07/31 01:07:08;;;;;;;26.55;20.58;;;24.60;98.10;;;;;;5053641;28;20028;-95
2021/07/31 01:09:38;;;;;;;24.00;19.80;;;24.60;98.20;;;;;;5054294;28;20032;-92
2021/07/31 01:12:10;;;;;;;23.65;19.60;;;24.60;98.20;;;;;;5058659;28;20116;-94
2021/07/31 01:14:38;;;;;;;23.30;19.83;;;24.60;98.20;;;;;;5037241;28;20033;-95
2021/07/31 01:17:11;;;;;;;25.55;19.83;;;24.60;98.20;;;;;;5054445;28;20024;-94
2021/07/31 01:19:40;;;;;;;22.55;18.88;;;24.60;98.20;;;;;;5042770;28;20048;-91
2021/07/31 01:22:11;;;;;;;22.60;19.17;;;24.60;98.20;;;;;;5075034;28;20021;-91
2021/07/31 01:24:47;;;;;;;21.30;17.75;;;24.60;98.20;;;;;;5050078;28;20017;-92
2021/07/31 01:27:16;;;;;;;22.45;18.20;;;24.60;98.20;;;;;;5060507;28;20017;-92
2021/07/31 01:29:53;;;;;;;20.35;17.05;;;24.60;98.20;;;;;;5059111;28;20463;-93
2021/07/31 01:32:33;;;;;;;21.42;17.23;;;24.60;98.20;;;;;;5041239;28;20041;-93
2021/07/31 01:35:09;;;;;;;21.52;17.02;;;24.60;98.20;;;;;;5038760;28;20040;-94
2021/07/31 01:37:55;;;;;;;20.27;17.20;;;24.60;98.20;;;;;;5037048;28;20486;-94
2021/07/31 01:40:42;;;;;;;;;;;;;;;;;;;;;
2021/07/31 01:43:18;;;;;;;19.55;16.52;;;24.60;98.20;;;;;;5057021;28;20092;-94
2021/07/31 01:45:54;;;;;;;18.00;14.93;;;24.60;98.20;;;;;;5074473;28;20119;-95
2021/07/31 01:48:30;;;;;;;15.98;14.25;;;24.60;98.20;;;;;;5043960;28;20040;-93
2021/07/31 01:51:11;;;;;;;18.00;15.63;;;24.60;98.20;;;;;;5054505;28;20104;-94
2021/07/31 01:53:59;;;;;;;;;;;;;;;;;;;;;
2021/07/31 01:56:35;;;;;;;15.90;13.77;;;24.60;98.20;;;;;;5061809;28;20109;-93
2021/07/31 01:59:31;;;;;;;;;;;;;;;;;;;;;
2021/07/31 02:02:10;;;;;;;16.42;13.43;;;24.60;98.20;;;;;;5054691;28;20112;-95
2021/07/31 02:04:41;;;;;;;17.75;13.75;;;24.60;98.20;;;;;;5071090;28;20033;-95
2021/07/31 02:07:14;;;;;;;14.50;12.45;;;24.60;98.20;;;;;;5056952;28;20033;-94
2021/07/31 02:09:50;;;;;;;;;;;;;;;;;;;;;
2021/07/31 02:12:36;;;;;;;;;;;;;;;;;;;;;
2021/07/31 02:15:04;;;;;;;13.52;11.85;;;24.60;98.20;;;;;;5060692;28;20120;-95
2021/07/31 02:17:43;;;;;;;11.73;10.40;;;24.60;98.20;;;;;;5076408;28;20029;-93
2021/07/31 02:20:34;;;;;;;13.35;11.93;;;24.60;98.20;;;;;;5041277;28;20467;-94
2021/07/31 02:23:00;;;;;;;13.15;11.10;;;24.60;98.20;;;;;;5056579;28;20036;-94
2021/07/31 02:25:28;;;;;;;12.43;10.77;;;24.60;98.20;;;;;;5073291;28;20029;-93
2021/07/31 02:28:02;;;;;;;14.20;11.27;;;24.60;98.20;;;;;;5074678;28;20029;-93
2021/07/31 02:30:50;;;;;;;11.75;10.50;;;24.60;98.20;;;;;;5040606;28;20128;-94
2021/07/31 02:33:18;;;;;;;12.82;10.80;;;24.60;98.20;;;;;;5056298;28;20067;-94
2021/07/31 02:35:48;;;;;;;11.60;9.57;;;24.60;98.20;;;;;;5040368;28;20479;-94
2021/07/31 02:38:36;;;;;;;12.43;10.60;;;24.60;98.10;;;;;;5041086;28;20029;-94
2021/07/31 02:41:06;;;;;;;12.23;9.70;;;24.60;98.10;;;;;;5061106;28;20077;-93
2021/07/31 02:43:32;;;;;;;10.90;9.75;;;24.60;98.10;;;;;;5059635;28;20111;-94
2021/07/31 02:46:12;;;;;;;12.18;10.18;;;24.60;98.10;;;;;;5058970;28;20083;-93
2021/07/31 02:48:48;;;;;;;12.20;9.30;;;24.60;98.10;;;;;;5075769;28;20028;-94
2021/07/31 02:51:23;;;;;;;10.80;9.63;;;24.60;98.10;;;;;;5059602;28;20131;-94
2021/07/31 02:54:04;;;;;;;11.10;9.40;;;24.60;98.10;;;;;;5060927;28;20032;-94
2021/07/31 02:56:35;;;;;;;10.10;8.98;;;24.60;98.10;;;;;;5076633;28;20028;-94
2021/07/31 02:59:20;;;;;;;10.73;8.73;;;24.60;98.10;;;;;;5059531;28;20039;-94
2021/07/31 03:01:46;;;;;;;10.70;8.88;;;24.50;98.10;;;;;;5077717;28;20043;-94
2021/07/31 03:04:17;;;;;;;10.73;8.68;;;24.60;98.10;;;;;;5071474;28;20029;-93
2021/07/31 03:06:50;;;;;;;10.60;8.75;;;24.60;98.20;;;;;;5062026;28;20032;-94
2021/07/31 03:12:30;;;;;;;8.65;7.68;;;24.60;98.20;;;;;;5069235;28;20041;-94
2021/07/31 03:15:25;;;;;;;;;;;;;;;;;;;;;
2021/07/31 03:18:03;;;;;;;;;;;;;;;;;;;;;
2021/07/31 03:20:42;;;;;;;;;;;;;;;;;;;;;
2021/07/31 03:23:17;;;;;;;9.57;7.55;;;24.50;98.10;;;;;;5095517;28;20066;-94
2021/07/31 03:25:50;;;;;;;9.25;7.65;;;24.50;98.10;;;;;;5079329;28;20029;-94
2021/07/31 03:28:54;;;;;;;9.67;7.80;;;24.50;98.10;;;;;;5091928;28;20032;-95
2021/07/31 04:22:05;;;;;;;13.63;11.57;;;24.40;98.20;;;;;;4702727;30;20067;-91
2021/07/31 04:24:36;;;;;;;13.17;11.07;;;24.40;98.20;;;;;;4785044;29;20057;-95
2021/07/31 04:27:24;;;;;;;13.35;11.02;;;24.40;98.20;;;;;;4858172;29;20291;-93
2021/07/31 04:29:58;;;;;;;14.10;11.93;;;24.50;98.20;;;;;;4930152;29;20118;-93
2021/07/31 04:32:36;;;;;;;;;;;;;;;;;;;;;
2021/07/31 04:35:48;;;;;;;13.43;12.02;;;24.50;98.20;;;;;;4989441;28;20533;-94
2021/07/31 04:38:16;;;;;;;14.45;12.35;;;24.50;98.20;;;;;;5039810;28;20081;-94
2021/07/31 04:40:49;;;;;;;16.65;12.95;;;24.40;98.20;;;;;;5024936;28;20486;-92
2021/07/31 04:43:25;;;;;;;;;;;;;;;;;;;;;
2021/07/31 04:46:04;;;;;;;17.30;13.50;;;24.50;98.20;;;;;;5035641;28;20032;-94
2021/07/31 04:48:32;;;;;;;16.33;14.00;;;24.50;98.20;;;;;;5017819;28;20120;-93
2021/07/31 04:51:12;;;;;;;;;;;;;;;;;;;;;
2021/07/31 04:53:41;;;;;;;16.08;12.95;;;24.50;98.20;;;;;;5041862;28;20094;-96
2021/07/31 04:56:17;;;;;;;16.13;14.00;;;24.50;98.20;;;;;;5027255;28;20099;-96
2021/07/31 04:59:26;;;;;;;17.40;13.68;;;24.50;98.20;;;;;;5022177;28;20462;-96
2021/07/31 05:02:23;;;;;;;16.27;13.88;;;24.50;98.20;;;;;;5036559;28;20057;-96
2021/07/31 05:05:00;;;;;;;16.55;13.63;;;24.50;98.20;;;;;;5022896;28;20044;-96
2021/07/31 05:08:18;;;;;;;15.27;13.13;;;24.50;98.30;;;;;;5029476;28;20088;-96
2021/07/31 05:11:21;;;;;;;14.30;12.48;;;24.50;98.30;;;;;;5037891;28;20049;-96
2021/07/31 05:14:02;;;;;;;14.07;12.13;;;24.40;98.40;;;;;;5025617;28;20041;-96
2021/07/31 05:16:58;;;;;;;13.48;11.75;;;24.50;98.40;;;;;;5037257;28;20112;-96
2021/07/31 05:19:38;;;;;;;13.63;11.23;;;24.50;98.40;;;;;;5029296;28;20033;-96
2021/07/31 05:22:06;;;;;;;12.48;10.70;;;24.50;98.50;;;;;;5003821;28;20088;-95
2021/07/31 05:24:53;;;;;;;;;;;;;;;;;;;;;
2021/07/31 05:27:39;;;;;;;11.75;10.30;;;24.50;98.50;;;;;;5040322;28;20104;-96
2021/07/31 05:30:38;;;;;;;;;;;;;;;;;;;;;
2021/07/31 05:33:33;;;;;;;11.27;9.57;;;24.50;98.50;;;;;;5049588;28;20080;-96
2021/07/31 05:39:17;;;;;;;10.18;9.02;;;24.50;98.50;;;;;;5025661;28;20437;-96
2021/07/31 05:41:57;;;;;;;10.25;8.50;;;24.50;98.50;;;;;;5035030;28;20094;-95
2021/07/31 05:44:26;;;;;;;10.13;8.55;;;24.50;98.50;;;;;;5033967;28;20045;-96
2021/07/31 05:46:56;;;;;;;10.55;8.50;;;24.50;98.60;;;;;;5040470;28;20041;-96
2021/07/31 05:49:33;;;;;;;9.50;8.10;;;24.50;98.60;;;;;;5036486;28;20064;-96
2021/07/31 05:52:20;;;;;;;;;;;;;;;;;;;;;
2021/07/31 05:55:19;;;;;;;8.77;7.68;;;24.50;98.60;;;;;;5054273;28;20064;-96
2021/07/31 05:57:58;;;;;;;9.13;7.95;;;24.50;98.60;;;;;;5042469;28;20025;-96
2021/07/31 06:07:43;;;;;;;9.20;7.88;;;24.50;98.60;;;;;;5012162;28;20052;-94
2021/07/31 06:10:10;;;;;;;9.75;7.75;;;24.50;98.60;;;;;;5032359;28;20163;-90
2021/07/31 06:12:38;;;;;;;9.07;7.53;;;24.40;98.60;;;;;;5069196;28;20056;-89
2021/07/31 06:15:07;;;;;;;8.57;7.32;;;24.50;98.60;;;;;;5030729;28;20033;-90
2021/07/31 06:17:32;;;;;;;7.25;6.43;;;24.50;98.60;;;;;;5037125;28;20033;-89
2021/07/31 06:20:00;;;;;;;8.23;6.78;;;24.50;98.60;;;;;;5034809;28;20524;-88
2021/07/31 06:22:28;;;;;;;8.35;7.18;;;24.50;98.60;;;;;;5034259;28;20033;-89
2021/07/31 06:24:56;;;;;;;9.45;8.13;;;24.50;98.70;;;;;;5052275;28;20082;-89
2021/07/31 06:27:25;;;;;;;10.27;8.10;;;24.50;98.70;;;;;;5017663;28;20029;-89
2021/07/31 06:29:52;;;;;;;9.95;7.93;;;24.50;98.80;;;;;;5017740;28;20387;-89
2021/07/31 06:32:20;;;;;;;9.52;8.07;;;24.50;98.80;;;;;;5035698;28;20036;-88
2021/07/31 06:34:46;;;;;;;8.70;7.80;;;24.50;98.80;;;;;;5052184;28;20057;-89
2021/07/31 06:37:16;;;;;;;9.07;7.55;;;24.50;98.80;;;;;;5037864;28;20021;-88
2021/07/31 06:39:45;;;;;;;8.75;7.85;;;24.50;98.80;;;;;;5034127;28;20033;-89
2021/07/31 06:42:11;;;;;;;8.88;7.50;;;24.50;98.80;;;;;;5034200;28;20059;-89
2021/07/31 06:44:42;;;;;;;8.50;7.53;;;24.50;98.80;;;;;;5035316;28;20029;-89
2021/07/31 06:47:10;;;;;;;8.23;7.15;;;24.50;98.80;;;;;;5018337;28;20095;-90
2021/07/31 06:49:38;;;;;;;7.75;6.72;;;24.50;98.80;;;;;;5036077;28;20029;-89
2021/07/31 06:52:04;;;;;;;7.13;6.43;;;24.50;98.80;;;;;;5035731;28;20040;-90
2021/07/31 06:54:35;;;;;;;7.05;6.15;;;24.50;98.80;;;;;;5037883;28;20021;-90
2021/07/31 06:57:03;;;;;;;6.40;5.50;;;24.50;98.80;;;;;;5042283;28;20029;-88
2021/07/31 06:59:32;;;;;;;7.43;5.63;;;24.50;98.80;;;;;;5038153;28;20028;-90
2021/07/31 07:01:57;;;;;;;7.35;5.88;;;24.50;98.80;;;;;;5017710;28;20045;-89
2021/07/31 07:04:23;;;;;;;7.40;5.85;;;24.50;98.80;;;;;;5016058;28;20025;-89
2021/07/31 07:06:51;;;;;;;5.88;4.63;;;24.60;98.90;;;;;;5000637;28;20033;-89
2021/07/31 07:09:16;;;;;;;8.23;5.18;;;24.60;98.90;;;;;;5015814;28;20025;-87
2021/07/31 07:11:43;;;;;;;6.95;5.05;;;24.60;98.90;;;;;;5017017;28;20040;-88
2021/07/31 07:14:09;;;;;;;6.05;4.72;;;24.60;98.90;;;;;;5017398;28;20036;-88
2021/07/31 07:16:35;;;;;;;5.15;4.18;;;24.60;98.90;;;;;;5017204;28;20394;-87
2021/07/31 07:19:05;;;;;;;5.22;4.07;;;24.60;99.00;;;;;;5017049;28;20030;-88
2021/07/31 07:21:33;;;;;;;4.30;3.40;;;24.60;99.00;;;;;;5018447;28;20037;-89
2021/07/31 07:24:04;;;;;;;3.30;2.95;;;24.60;99.00;;;;;;5018131;28;20467;-89
2021/07/31 07:26:30;;;;;;;4.45;3.00;;;24.70;99.10;;;;;;5034884;28;20033;-89
2021/07/31 07:29:04;;;;;;;3.08;2.70;;;24.70;99.10;;;;;;5018145;28;20030;-93
2021/07/31 07:32:00;;;;;;;;;;;;;;;;;;;;;
2021/07/31 07:34:31;;;;;;;3.20;2.60;;;24.60;99.10;;;;;;5030123;28;20041;-92
2021/07/31 07:37:02;;;;;;;3.80;2.42;;;24.60;99.20;;;;;;5017824;28;20022;-91
2021/07/31 07:39:42;;;;;;;2.63;2.25;;;24.60;99.30;;;;;;5003327;28;20064;-91
2021/07/31 07:42:11;;;;;;;2.58;1.98;;;24.60;99.40;;;;;;5002491;28;20037;-91
2021/07/31 07:44:39;;;;;;;2.47;1.88;;;24.60;99.50;;;;;;5017559;28;20060;-91
2021/07/31 07:47:07;;;;;;;2.17;1.58;;;24.60;99.60;;;;;;5009378;28;20044;-90
2021/07/31 07:49:43;;;;;;;1.55;1.45;;;24.60;99.70;;;;;;5020279;28;20026;-91
2021/07/31 07:52:14;;;;;;;1.60;1.50;;;24.70;99.80;;;;;;5003592;28;20040;-91
2021/07/31 07:54:42;;;;;;;1.77;1.58;;;24.60;99.90;;;;;;5017907;28;20463;-89
2021/07/31 07:57:10;;;;;;;1.50;1.30;;;24.60;99.90;;;;;;5000795;28;20111;-90
2021/07/31 07:59:49;;;;;;;;;;;;;;;;;;;;;
2021/07/31 08:02:17;;;;;;;1.95;1.48;;;24.60;99.90;;;;;;5037519;28;20150;-90
2021/07/31 08:04:44;;;;;;;1.50;1.38;;;24.60;99.90;;;;;;5045866;28;20029;-92
2021/07/31 08:07:43;;;;;;;;;;;;;;;;;;;;;
2021/07/31 08:10:17;;;;;;;1.77;1.40;;;24.60;99.90;;;;;;5049853;28;20127;-89
2021/07/31 08:12:53;;;;;;;;;;;24.60;99.90;;;;;;5042210;28;20088;-90
2021/07/31 08:15:41;;;;;;;2.40;1.90;;;24.60;99.90;;;;;;5039045;28;19904;-94
2021/07/31 08:18:30;;;;;;;4.05;1.63;;;24.60;99.90;;;;;;5039423;28;20032;-95
2021/07/31 08:21:32;;;;;;;4.22;2.28;;;24.60;99.90;;;;;;5023883;28;20033;-91
2021/07/31 08:24:02;;;;;;;5.25;2.35;;;24.70;99.90;;;;;;5050831;28;20099;-91
2021/07/31 08:27:00;;;;;;;;;;;;;;;;;;;;;
2021/07/31 08:29:34;;;;;;;4.40;2.13;;;24.70;99.90;;;;;;5054760;28;20029;-93
2021/07/31 08:32:09;;;;;;;3.00;2.23;;;24.70;99.90;;;;;;5020444;28;20139;-92
2021/07/31 08:34:38;;;;;;;6.63;2.53;;;24.70;99.90;;;;;;5021793;28;20029;-95
2021/07/31 08:37:28;;;;;;;2.83;2.22;;;24.80;99.90;;;;;;5037232;28;20021;-93
2021/07/31 08:40:47;;;;;;;;;;;;;;;;;;;;;
2021/07/31 08:43:28;;;;;;;;;;;;;;;;;;;;;
2021/07/31 08:46:39;;;;;;;;;;;;;;;;;;;;;
2021/07/31 08:56:23;;;;;;;;;;;;;;;;;;;;;
2021/07/31 08:59:24;;;;;;;3.08;1.60;;;24.80;99.90;;;;;;5062461;28;20084;-93
2021/07/31 09:05:04;;;;;;;4.15;1.80;;;24.80;99.90;;;;;;5024953;28;20419;-89
2021/07/31 09:07:42;;;;;;;2.80;1.75;;;24.80;99.90;;;;;;5043632;28;20031;-91
2021/07/31 09:10:27;;;;;;;2.40;1.55;;;24.80;99.90;;;;;;5054587;28;20074;-90
2021/07/31 09:12:53;;;;;;;;;;;24.80;99.90;;;;;;5037038;28;20059;-91
2021/07/31 09:15:54;;;;;;;1.88;1.65;;;24.80;99.90;;;;;;5035220;28;19935;-92
2021/07/31 09:18:45;;;;;;;;;;;;;;;;;;;;;
2021/07/31 09:21:26;;;;;;;2.08;1.55;;;24.70;99.90;;;;;;5054102;28;20029;-91
2021/07/31 09:23:53;;;;;;;1.50;1.30;;;24.70;99.90;;;;;;5035547;28;20032;-91
2021/07/31 09:26:47;;;;;;;;;;;;;;;;;;;;;
2021/07/31 09:32:22;;;;;;;2.95;1.52;;;24.80;99.90;;;;;;4993666;28;20042;-92
2021/07/31 09:35:43;;;;;;;5.07;1.90;;;24.70;99.90;;;;;;5000541;28;20107;-94
2021/07/31 09:38:18;;;;;;;2.95;1.50;;;24.80;99.90;;;;;;5005505;28;20069;-93
2021/07/31 09:40:49;;;;;;;2.10;1.55;;;24.80;99.90;;;;;;5032365;28;20033;-91
2021/07/31 09:43:25;;;;;;;1.65;1.40;;;24.80;99.90;;;;;;5016766;28;20033;-91
2021/07/31 09:49:05;;;;;;;2.25;1.70;;;24.80;99.90;;;;;;5024647;28;20049;-92
2021/07/31 09:51:48;;;;;;;2.35;1.75;;;24.80;99.90;;;;;;5036901;28;20030;-91
2021/07/31 09:54:25;;;;;;;1.98;1.67;;;24.80;99.90;;;;;;5031894;28;20083;-92
2021/07/31 09:56:55;;;;;;;1.73;1.40;;;24.80;99.90;;;;;;5039208;28;20081;-91
2021/07/31 09:59:54;;;;;;;2.95;2.08;;;24.80;99.90;;;;;;5038695;28;20037;-92
2021/07/31 10:02:21;;;;;;;3.17;2.00;;;24.80;99.90;;;;;;5035903;28;20101;-90
2021/07/31 10:04:48;;;;;;;2.70;2.10;;;24.80;99.90;;;;;;5020929;28;20037;-90
2021/07/31 10:07:19;;;;;;;2.72;2.17;;;24.80;99.90;;;;;;5037784;28;20022;-93
2021/07/31 10:10:03;;;;;;;3.05;1.88;;;24.90;99.90;;;;;;5040080;28;20115;-91
2021/07/31 10:12:44;;;;;;;2.33;2.00;;;24.90;99.90;;;;;;5024250;28;20121;-92
2021/07/31 10:15:10;;;;;;;2.17;1.92;;;24.90;99.90;;;;;;5036603;28;20026;-91
2021/07/31 10:17:45;;;;;;;2.75;1.92;;;24.90;99.90;;;;;;5034307;28;20391;-92
2021/07/31 10:20:32;;;;;;;3.95;2.05;;;24.90;99.90;;;;;;5026559;28;20105;-92
2021/07/31 10:23:07;;;;;;;3.25;2.30;;;25.00;99.90;;;;;;5051910;28;20053;-92
2021/07/31 10:26:08;;;;;;;4.05;2.33;;;25.00;99.90;;;;;;5055531;28;20081;-93
2021/07/31 10:28:34;;;;;;;4.38;2.13;;;25.00;99.90;;;;;;5040680;28;20025;-91
2021/07/31 10:31:51;;;;;;;3.20;2.13;;;25.00;99.90;;;;;;5023844;28;20038;-91
2021/07/31 10:35:02;;;;;;;2.72;1.83;;;25.00;99.90;;;;;;5008250;28;20045;-90
2021/07/31 10:37:38;;;;;;;2.35;1.75;;;25.00;99.90;;;;;;5044517;28;20101;-92
2021/07/31 10:40:10;;;;;;;1.58;1.45;;;25.00;99.90;;;;;;5020723;28;20155;-91
2021/07/31 10:42:55;;;;;;;2.05;1.60;;;25.00;99.90;;;;;;5037406;28;20029;-92
2021/07/31 10:45:31;;;;;;;2.03;1.23;;;25.00;99.90;;;;;;5040312;28;20022;-94
2021/07/31 10:48:05;;;;;;;1.98;1.35;;;25.00;99.90;;;;;;5042197;28;20025;-93
2021/07/31 10:50:41;;;;;;;;;;;;;;;;;;;;;
2021/07/31 10:53:19;;;;;;;1.50;1.20;;;25.00;99.90;;;;;;5047631;28;20102;-92
2021/07/31 10:55:52;;;;;;;1.52;1.40;;;24.90;99.90;;;;;;5020866;28;20522;-93
2021/07/31 10:58:30;;;;;;;1.50;1.23;;;24.90;99.90;;;;;;5024002;28;20025;-93
2021/07/31 11:01:40;;;;;;;1.33;0.90;;;24.90;99.90;;;;;;5028205;28;20049;-92
2021/07/31 11:04:26;;;;;;;2.47;1.13;;;24.90;99.90;;;;;;5007626;28;20107;-93
2021/07/31 11:07:37;;;;;;;;;;;;;;;;;;;;;
2021/07/31 11:10:39;;;;;;;2.28;1.30;;;24.90;99.90;;;;;;5003420;28;20102;-93
2021/07/31 11:13:17;;;;;;;;;;;;;;;;;;;;;
2021/07/31 11:16:17;;;;;;;1.65;1.10;;;24.90;99.90;;;;;;5042230;28;20426;-90
2021/07/31 11:18:47;;;;;;;1.35;1.08;;;24.80;99.90;;;;;;5039527;28;20052;-91
2021/07/31 11:21:29;;;;;;;;;;;;;;;;;;;;;
2021/07/31 11:24:08;;;;;;;3.30;1.20;;;24.80;99.90;;;;;;5039786;28;20140;-91
2021/07/31 11:26:49;;;;;;;1.40;0.90;;;24.80;99.90;;;;;;5037065;28;20061;-91
2021/07/31 11:29:30;;;;;;;0.90;0.80;;;24.80;99.90;;;;;;5038697;28;20032;-90
2021/07/31 11:32:12;;;;;;;;;;;;;;;;;;;;;
2021/07/31 11:34:44;;;;;;;0.80;0.70;;;24.80;99.90;;;;;;5039836;28;20434;-91
2021/07/31 11:37:16;;;;;;;0.80;0.80;;;24.80;99.90;;;;;;5036938;28;20026;-90
2021/07/31 11:40:04;;;;;;;1.00;0.80;;;24.80;99.90;;;;;;5035366;28;20029;-91
2021/07/31 11:42:52;;;;;;;1.63;1.02;;;24.80;99.90;;;;;;5020476;28;20033;-93
2021/07/31 11:49:25;;;;;;;;;;;;;;;;;;;;;
2021/07/31 11:55:51;;;;;;;2.85;1.80;;;24.80;99.90;;;;;;4999416;28;20045;-95
2021/07/31 11:58:17;;;;;;;7.68;2.30;;;24.90;99.90;;;;;;5000430;28;20033;-88
2021/07/31 12:00:48;;;;;;;3.90;2.10;;;24.90;99.90;;;;;;5036731;28;20349;-88
2021/07/31 12:03:41;;;;;;;2.00;1.38;;;24.90;99.90;;;;;;5023753;28;20053;-87
2021/07/31 12:06:37;;;;;;;1.77;1.45;;;25.00;99.90;;;;;;5018508;28;20025;-87
2021/07/31 12:09:22;;;;;;;1.88;1.48;;;25.00;99.90;;;;;;5039686;28;20021;-88
2021/07/31 12:11:50;;;;;;;1.30;1.20;;;25.00;99.90;;;;;;5023579;28;20030;-87
2021/07/31 12:14:31;;;;;;;1.95;1.40;;;25.00;99.90;;;;;;5023096;28;20090;-87
2021/07/31 12:17:29;;;;;;;1.20;1.10;;;25.00;99.90;;;;;;5018990;28;20029;-87
2021/07/31 12:19:59;;;;;;;1.00;0.90;;;24.90;99.90;;;;;;5008574;28;20084;-87
2021/07/31 12:22:36;;;;;;;0.77;0.77;;;24.90;99.90;;;;;;5024377;28;20159;-88
2021/07/31 12:25:19;;;;;;;1.50;1.05;;;24.90;99.90;;;;;;5034070;28;20113;-88
2021/07/31 12:27:56;;;;;;;1.88;1.25;;;25.00;99.90;;;;;;5036363;28;20029;-89
2021/07/31 12:30:27;;;;;;;1.10;1.00;;;25.00;99.90;;;;;;5038145;28;20022;-89
2021/07/31 12:33:01;;;;;;;1.20;1.10;;;24.90;99.90;;;;;;5040304;28;20060;-89
2021/07/31 12:35:36;;;;;;;1.70;1.30;;;24.90;99.90;;;;;;5039295;28;20025;-88
2021/07/31 12:38:22;;;;;;;1.33;1.23;;;24.90;99.90;;;;;;5036686;28;20033;-91
2021/07/31 12:40:56;;;;;;;2.03;1.38;;;24.90;99.90;;;;;;5037060;28;20037;-90
2021/07/31 12:43:26;;;;;;;1.38;1.27;;;24.90;99.90;;;;;;5055066;28;20025;-92
2021/07/31 12:45:57;;;;;;;1.88;1.58;;;24.90;99.90;;;;;;5043723;28;20033;-92
2021/07/31 12:48:23;;;;;;;1.98;1.50;;;24.90;99.90;;;;;;5008125;28;20037;-91
2021/07/31 12:50:49;;;;;;;3.00;1.70;;;25.00;99.90;;;;;;5039644;28;20099;-91
2021/07/31 12:53:16;;;;;;;1.60;1.50;;;24.90;99.90;;;;;;5041862;28;20029;-91
2021/07/31 12:55:43;;;;;;;2.03;1.70;;;25.00;99.90;;;;;;5040787;28;20021;-92
2021/07/31 12:58:12;;;;;;;2.15;1.73;;;24.90;99.90;;;;;;5038270;28;20036;-92
2021/07/31 13:00:39;;;;;;;1.70;1.60;;;25.00;99.90;;;;;;5023699;28;20069;-91
2021/07/31 13:03:06;;;;;;;2.20;1.85;;;24.90;99.90;;;;;;5042821;28;20072;-89
2021/07/31 13:05:42;;;;;;;1.92;1.73;;;24.90;99.90;;;;;;5026068;28;20413;-89
2021/07/31 13:08:08;;;;;;;2.47;1.75;;;24.90;99.90;;;;;;5041452;28;20116;-90
2021/07/31 13:10:35;;;;;;;2.10;1.60;;;24.90;99.90;;;;;;5024648;28;20026;-90
2021/07/31 13:13:03;;;;;;;2.30;1.70;;;24.90;99.90;;;;;;5020888;28;20037;-91
2021/07/31 13:15:28;;;;;;;2.05;1.70;;;24.90;99.90;;;;;;5019603;28;20033;-89
2021/07/31 13:17:54;;;;;;;1.80;1.70;;;24.90;99.90;;;;;;5017512;28;20029;-91
2021/07/31 13:20:19;;;;;;;1.85;1.73;;;24.90;99.90;;;;;;5017750;28;20032;-91
2021/07/31 13:22:46;;;;;;;2.75;2.00;;;24.90;99.90;;;;;;5018586;28;20519;-93
2021/07/31 13:25:15;;;;;;;2.15;1.95;;;24.90;99.90;;;;;;5028359;28;20482;-91
2021/07/31 13:27:43;;;;;;;2.65;2.13;;;24.90;99.90;;;;;;5019049;28;20029;-92
2021/07/31 13:30:09;;;;;;;2.30;1.80;;;24.90;99.90;;;;;;5040275;28;20057;-89
2021/07/31 13:32:45;;;;;;;1.58;1.48;;;25.00;99.90;;;;;;5034166;28;20081;-91
2021/07/31 13:35:14;;;;;;;2.83;1.65;;;24.90;99.90;;;;;;5021648;28;20037;-91
2021/07/31 13:37:46;;;;;;;2.00;1.80;;;25.00;99.90;;;;;;5041403;28;20040;-91
2021/07/31 13:40:55;;;;;;;2.90;1.77;;;25.00;99.90;;;;;;5035787;28;20041;-91
2021/07/31 13:43:04;;;;;;;2.70;1.83;;;25.00;99.90;;;;;;5028449;28;20041;-90
2021/07/31 13:45:32;;;;;;;2.55;2.10;;;25.00;99.90;;;;;;5038398;28;20120;-91
2021/07/31 13:47:58;;;;;;;2.22;2.03;;;25.00;99.90;;;;;;5036977;28;20034;-91
2021/07/31 13:50:32;;;;;;;2.33;2.03;;;25.00;99.90;;;;;;5035136;28;20025;-93
2021/07/31 13:52:58;;;;;;;1.88;1.70;;;25.00;99.90;;;;;;5005771;28;20037;-88
2021/07/31 13:55:25;;;;;;;1.98;1.83;;;25.00;99.90;;;;;;5035038;28;20055;-90
2021/07/31 13:57:54;;;;;;;2.20;1.88;;;24.90;99.90;;;;;;5037035;28;20480;-91
2021/07/31 14:00:23;;;;;;;2.10;1.88;;;25.00;99.90;;;;;;5036071;28;20042;-92
2021/07/31 14:02:50;;;;;;;2.00;1.90;;;24.90;99.90;;;;;;5036837;28;20025;-87
2021/07/31 14:05:19;;;;;;;2.13;1.92;;;24.90;99.90;;;;;;5044545;28;20117;-92
2021/07/31 14:10:19;;;;;;;;;;;24.90;99.90;;;;;;5069987;28;20106;-95
2021/07/31 14:12:45;;;;;;;3.13;1.95;;;24.90;99.90;;;;;;5046944;28;19926;-93
2021/07/31 14:15:13;;;;;;;2.20;1.60;;;24.90;99.90;;;;;;5027319;28;20067;-93
2021/07/31 14:17:39;;;;;;;2.90;1.75;;;24.90;99.90;;;;;;5048537;28;20025;-95
2021/07/31 14:20:09;;;;;;;1.75;1.50;;;24.90;99.90;;;;;;5048245;28;20043;-95
2021/07/31 14:22:36;;;;;;;2.58;1.90;;;24.90;99.90;;;;;;5033765;28;20056;-94
2021/07/31 14:25:03;;;;;;;1.50;1.40;;;24.90;99.90;;;;;;5044262;28;20116;-94
2021/07/31 14:27:31;;;;;;;2.35;1.52;;;24.90;99.90;;;;;;5073063;28;20013;-95
2021/07/31 14:30:00;;;;;;;2.75;2.17;;;24.90;99.90;;;;;;5048701;28;20029;-94
2021/07/31 14:32:28;;;;;;;1.85;1.75;;;24.90;99.90;;;;;;5047739;28;20033;-95
2021/07/31 14:34:54;;;;;;;2.03;1.60;;;24.90;99.90;;;;;;5067968;28;20029;-94
2021/07/31 14:37:20;;;;;;;2.55;1.98;;;24.90;99.90;;;;;;5054152;28;20080;-94
2021/07/31 14:39:46;;;;;;;2.00;1.80;;;24.90;99.90;;;;;;5055906;28;20025;-95
2021/07/31 14:42:16;;;;;;;2.47;1.90;;;24.90;99.90;;;;;;5053967;28;20108;-96
2021/07/31 14:44:48;;;;;;;1.83;1.73;;;24.80;99.90;;;;;;5058117;28;20037;-96
2021/07/31 14:47:17;;;;;;;1.80;1.70;;;24.90;99.90;;;;;;5052259;28;20164;-93
2021/07/31 14:49:45;;;;;;;2.38;1.77;;;24.90;99.90;;;;;;5049547;28;20025;-93
2021/07/31 14:55:40;;;;;;;131.50;16.17;;;25.00;99.90;;;;;;5005704;28;20047;-86
2021/07/31 14:58:06;;;;;;;36.65;8.10;;;25.00;99.90;;;;;;5056985;28;20032;-86
2021/07/31 15:00:32;;;;;;;14.75;5.05;;;24.90;99.90;;;;;;5037481;28;20391;-85
2021/07/31 15:02:58;;;;;;;7.32;3.30;;;24.90;99.90;;;;;;5036995;28;20133;-88
2021/07/31 15:05:23;;;;;;;5.28;2.47;;;24.90;99.90;;;;;;5037408;28;20044;-86
2021/07/31 15:07:49;;;;;;;3.00;2.58;;;24.90;99.90;;;;;;5020937;28;20025;-88
2021/07/31 15:10:15;;;;;;;2.78;2.05;;;24.90;99.90;;;;;;5037527;28;20053;-85
2021/07/31 15:12:40;;;;;;;2.55;2.00;;;24.90;99.90;;;;;;5036448;28;20151;-86
2021/07/31 15:15:06;;;;;;;2.55;2.30;;;24.90;99.90;;;;;;5020929;28;20044;-85
2021/07/31 15:17:32;;;;;;;4.53;2.45;;;24.90;99.90;;;;;;5022240;28;20040;-87
2021/07/31 15:19:58;;;;;;;2.00;1.80;;;24.90;99.90;;;;;;5038674;28;20029;-87
2021/07/31 15:22:23;;;;;;;2.20;1.70;;;24.90;99.90;;;;;;5022112;28;20047;-87
2021/07/31 15:24:49;;;;;;;1.73;1.63;;;24.90;99.90;;;;;;5058118;28;20033;-87
2021/07/31 15:27:15;;;;;;;2.20;1.90;;;24.80;99.90;;;;;;5042263;28;20090;-87
2021/07/31 15:29:40;;;;;;;3.25;2.03;;;24.80;99.90;;;;;;5055254;28;20052;-87
2021/07/31 15:32:06;;;;;;;2.72;2.10;;;24.90;99.90;;;;;;5055916;28;20036;-87
2021/07/31 15:34:32;;;;;;;3.50;1.83;;;24.90;99.90;;;;;;5041647;28;20186;-87
2021/07/31 15:36:58;;;;;;;2.65;2.10;;;24.80;99.90;;;;;;5042923;28;20029;-87
2021/07/31 15:39:25;;;;;;;1.95;1.77;;;24.80;99.90;;;;;;5023354;28;20033;-87
2021/07/31 15:41:51;;;;;;;2.30;2.10;;;24.80;99.90;;;;;;5041535;28;20036;-87
2021/07/31 15:44:17;;;;;;;2.30;2.10;;;24.80;99.90;;;;;;5022230;28;20084;-87
2021/07/31 15:46:43;;;;;;;3.33;2.38;;;24.80;99.90;;;;;;5038766;28;20096;-87
2021/07/31 15:49:08;;;;;;;2.28;1.85;;;24.80;99.90;;;;;;5021202;28;20458;-87
2021/07/31 15:51:34;;;;;;;2.30;2.00;;;24.70;99.90;;;;;;5037166;28;20033;-88
2021/07/31 15:54:00;;;;;;;3.50;2.42;;;24.80;99.90;;;;;;5021026;28;20029;-87
2021/07/31 15:56:25;;;;;;;2.72;2.47;;;24.80;99.90;;;;;;5041148;28;20076;-88
2021/07/31 15:58:55;;;;;;;4.45;2.30;;;24.70;99.90;;;;;;5054924;28;20029;-87
2021/07/31 16:01:21;;;;;;;2.50;2.30;;;24.80;99.90;;;;;;5037424;28;20025;-87
2021/07/31 16:03:47;;;;;;;2.58;2.28;;;24.70;99.90;;;;;;5037324;28;20036;-87
2021/07/31 16:06:17;;;;;;;2.70;2.13;;;24.70;99.90;;;;;;5021166;28;20032;-87
2021/07/31 16:08:43;;;;;;;2.20;2.00;;;24.70;99.90;;;;;;5054539;28;20116;-87
2021/07/31 16:11:10;;;;;;;2.63;2.17;;;24.70;99.90;;;;;;5057105;28;20033;-89
2021/07/31 16:13:35;;;;;;;3.22;2.47;;;24.70;99.90;;;;;;5022502;28;20033;-87
2021/07/31 16:16:02;;;;;;;3.00;2.70;;;24.70;99.90;;;;;;5039946;28;20087;-87
2021/07/31 16:18:27;;;;;;;2.45;2.15;;;24.70;99.90;;;;;;5061000;28;20116;-87
2021/07/31 16:20:53;;;;;;;2.63;2.20;;;24.70;99.90;;;;;;5039456;28;20057;-87
2021/07/31 16:23:18;;;;;;;2.20;2.00;;;24.70;99.90;;;;;;5058132;28;20033;-86
2021/07/31 16:25:44;;;;;;;3.20;2.35;;;24.70;99.90;;;;;;5038638;28;20033;-87
2021/07/31 16:28:10;;;;;;;2.92;2.33;;;24.70;99.90;;;;;;5020741;28;20025;-88
2021/07/31 16:30:35;;;;;;;2.72;2.17;;;24.70;99.90;;;;;;5039414;28;20029;-87
2021/07/31 16:33:01;;;;;;;2.55;2.20;;;24.70;99.90;;;;;;5019805;28;20048;-87